createdAt,value
2023-05-06T00:00:35.434Z,16.30
2023-05-06T00:01:38.013Z,14.80
2023-05-06T00:02:40.969Z,14.20
2023-05-06T00:03:43.845Z,15.95
2023-05-06T00:04:46.772Z,15.50
2023-05-06T00:05:49.805Z,17.30
2023-05-06T00:06:52.917Z,15.73
2023-05-06T00:07:55.881Z,16.67
2023-05-06T00:08:58.454Z,16.55
2023-05-06T00:10:01.619Z,16.25
2023-05-06T00:11:04.330Z,15.98
2023-05-06T00:12:06.967Z,17.48
2023-05-06T00:13:09.863Z,17.17
2023-05-06T00:14:13.048Z,17.52
2023-05-06T00:15:15.584Z,16.73
2023-05-06T00:16:18.228Z,17.85
2023-05-06T00:17:20.847Z,16.85
2023-05-06T00:18:23.884Z,15.77
2023-05-06T00:19:26.513Z,16.02
2023-05-06T00:20:29.719Z,15.65
2023-05-06T00:21:32.249Z,16.10
2023-05-06T00:22:34.829Z,17.33
2023-05-06T00:23:37.398Z,16.00
2023-05-06T00:24:39.968Z,16.20
2023-05-06T00:25:42.603Z,16.65
2023-05-06T00:26:45.662Z,15.48
2023-05-06T00:27:48.190Z,15.23
2023-05-06T00:28:50.967Z,14.98
2023-05-06T00:29:53.510Z,15.80
2023-05-06T00:30:56.120Z,17.00
2023-05-06T00:31:58.699Z,15.02
2023-05-06T00:33:01.512Z,14.35
2023-05-06T00:34:04.107Z,15.05
2023-05-06T00:35:07.501Z,17.05
2023-05-06T00:36:10.499Z,15.70
2023-05-06T00:37:13.060Z,15.15
2023-05-06T00:38:15.670Z,15.23
2023-05-06T00:39:18.460Z,14.38
2023-05-06T00:40:21.044Z,14.45
2023-05-06T00:41:23.612Z,14.57
2023-05-06T00:42:26.261Z,13.82
2023-05-06T00:43:28.845Z,14.93
2023-05-06T00:44:34.661Z,16.48
2023-05-06T00:45:38.493Z,15.60
2023-05-06T00:46:42.750Z,14.60
2023-05-06T00:47:45.484Z,15.07
2023-05-06T00:48:48.430Z,15.52
2023-05-06T00:49:51.593Z,15.25
2023-05-06T00:50:54.841Z,15.10
2023-05-06T00:51:57.875Z,15.23
2023-05-06T00:53:02.999Z,14.93
2023-05-06T00:54:05.844Z,13.77
2023-05-06T00:55:09.542Z,14.93
2023-05-06T00:56:12.831Z,15.25
2023-05-06T00:57:15.919Z,14.63
2023-05-06T00:58:20.554Z,14.48
2023-05-06T00:59:23.628Z,15.05
2023-05-06T01:00:26.419Z,14.30
2023-05-06T01:01:31.658Z,15.82
2023-05-06T01:02:46.269Z,15.52
2023-05-06T01:03:52.082Z,15.70
2023-05-06T01:04:56.176Z,15.07
2023-05-06T01:06:08.948Z,16.67
2023-05-06T01:07:35.318Z,15.70
2023-05-06T01:09:27.044Z,15.25
2023-05-06T01:10:52.180Z,14.68
2023-05-06T01:12:07.426Z,16.35
2023-05-06T01:13:52.529Z,14.52
2023-05-06T01:15:20.254Z,16.10
2023-05-06T01:16:26.884Z,15.63
2023-05-06T01:17:31.888Z,16.70
2023-05-06T01:18:36.615Z,15.40
2023-05-06T01:19:53.396Z,16.17
2023-05-06T01:20:56.837Z,16.38
2023-05-06T01:22:02.500Z,16.58
2023-05-06T01:23:15.159Z,15.50
2023-05-06T01:24:17.675Z,16.67
2023-05-06T01:25:23.889Z,15.75
2023-05-06T01:26:27.185Z,15.80
2023-05-06T01:27:29.748Z,15.43
2023-05-06T01:28:32.293Z,16.70
2023-05-06T01:29:37.697Z,15.55
2023-05-06T01:31:05.695Z,16.58
2023-05-06T01:32:19.733Z,15.85
2023-05-06T01:33:39.428Z,15.05
2023-05-06T01:34:56.906Z,16.88
2023-05-06T01:36:39.783Z,16.27
2023-05-06T01:38:32.652Z,16.00
2023-05-06T01:39:35.295Z,16.70
2023-05-06T01:40:38.777Z,15.40
2023-05-06T01:41:42.113Z,16.30
2023-05-06T01:42:50.835Z,15.65
2023-05-06T01:43:54.913Z,16.08
2023-05-06T01:45:00.294Z,15.45
2023-05-06T01:46:03.589Z,16.25
2023-05-06T01:47:09.096Z,16.75
2023-05-06T01:48:12.108Z,15.13
2023-05-06T01:49:16.985Z,14.32
2023-05-06T01:50:19.919Z,15.95
2023-05-06T01:51:23.080Z,15.80
2023-05-06T01:52:26.899Z,15.50
2023-05-06T01:53:29.705Z,16.88
2023-05-06T01:54:32.215Z,15.55
2023-05-06T01:55:37.090Z,15.38
2023-05-06T01:56:39.650Z,15.82
2023-05-06T01:57:42.223Z,16.40
2023-05-06T01:58:44.802Z,14.75
2023-05-06T01:59:47.328Z,14.75
2023-05-06T02:00:49.898Z,14.30
2023-05-06T02:01:52.473Z,14.80
2023-05-06T02:02:55.340Z,14.82
2023-05-06T02:03:58.244Z,13.95
2023-05-06T02:05:00.902Z,14.63
2023-05-06T02:06:03.726Z,14.90
2023-05-06T02:07:11.126Z,16.08
2023-05-06T02:08:13.749Z,15.55
2023-05-06T02:09:16.724Z,15.52
2023-05-06T02:10:25.860Z,16.10
2023-05-06T02:11:34.560Z,14.38
2023-05-06T02:12:40.653Z,15.30
2023-05-06T02:13:43.350Z,16.60
2023-05-06T02:14:46.589Z,15.48
2023-05-06T02:15:54.333Z,16.30
2023-05-06T02:16:57.833Z,14.75
2023-05-06T02:18:00.394Z,15.38
2023-05-06T02:19:03.380Z,14.05
2023-05-06T02:20:06.917Z,14.73
2023-05-06T02:21:10.596Z,15.10
2023-05-06T02:22:13.156Z,14.75
2023-05-06T02:23:15.758Z,15.50
2023-05-06T02:24:18.313Z,15.07
2023-05-06T02:25:22.696Z,14.90
2023-05-06T02:26:25.332Z,15.50
2023-05-06T02:27:27.949Z,16.10
2023-05-06T02:28:31.156Z,15.55
2023-05-06T02:29:34.237Z,14.50
2023-05-06T02:30:36.877Z,14.82
2023-05-06T02:31:39.528Z,15.05
2023-05-06T02:32:42.115Z,14.00
2023-05-06T02:33:46.045Z,15.60
2023-05-06T02:34:48.686Z,17.20
2023-05-06T02:35:51.885Z,15.77
2023-05-06T02:36:54.448Z,14.82
2023-05-06T02:37:58.905Z,15.98
2023-05-06T02:39:02.889Z,15.82
2023-05-06T02:40:06.702Z,14.75
2023-05-06T02:41:09.410Z,16.10
2023-05-06T02:42:18.594Z,15.82
2023-05-06T02:43:23.098Z,16.42
2023-05-06T02:44:26.175Z,15.30
2023-05-06T02:45:28.769Z,16.85
2023-05-06T02:46:31.314Z,16.88
2023-05-06T02:47:34.087Z,16.13
2023-05-06T02:48:36.830Z,16.55
2023-05-06T02:49:39.957Z,17.27
2023-05-06T02:50:42.474Z,15.95
2023-05-06T02:51:45.160Z,17.25
2023-05-06T02:52:47.811Z,17.35
2023-05-06T02:53:50.336Z,17.45
2023-05-06T02:54:52.956Z,16.63
2023-05-06T02:55:55.534Z,15.95
2023-05-06T02:56:58.191Z,16.60
2023-05-06T02:58:00.762Z,16.80
2023-05-06T02:59:04.233Z,16.27
2023-05-06T03:00:07.641Z,16.92
2023-05-06T03:01:10.518Z,16.30
2023-05-06T03:02:13.138Z,17.65
2023-05-06T03:03:17.003Z,15.45
2023-05-06T03:04:19.595Z,15.98
2023-05-06T03:05:22.254Z,17.55
2023-05-06T03:06:24.807Z,16.58
2023-05-06T03:07:27.393Z,16.58
2023-05-06T03:08:29.933Z,15.88
2023-05-06T03:09:32.639Z,17.02
2023-05-06T03:10:35.593Z,16.95
2023-05-06T03:11:38.369Z,17.17
2023-05-06T03:12:41.805Z,16.58
2023-05-06T03:13:44.399Z,17.80
2023-05-06T03:14:47.269Z,16.13
2023-05-06T03:15:54.196Z,17.20
2023-05-06T03:16:57.283Z,15.85
2023-05-06T03:18:00.259Z,16.70
2023-05-06T03:19:06.626Z,16.27
2023-05-06T03:20:10.158Z,16.80
2023-05-06T03:21:16.275Z,16.50
2023-05-06T03:22:21.134Z,16.85
2023-05-06T03:23:23.725Z,16.27
2023-05-06T03:24:26.761Z,16.63
2023-05-06T03:25:29.434Z,17.23
2023-05-06T03:26:32.688Z,17.48
2023-05-06T03:27:35.620Z,16.75
2023-05-06T03:28:44.864Z,18.65
2023-05-06T03:29:48.689Z,18.58
2023-05-06T03:30:52.309Z,18.40
2023-05-06T03:31:57.891Z,18.77
2023-05-06T03:33:02.137Z,17.05
2023-05-06T03:34:07.501Z,17.65
2023-05-06T03:35:11.745Z,16.67
2023-05-06T03:36:16.329Z,17.42
2023-05-06T03:37:21.930Z,17.42
2023-05-06T03:38:28.566Z,18.95
2023-05-06T03:39:36.529Z,17.67
2023-05-06T03:40:39.540Z,17.17
2023-05-06T03:41:42.510Z,18.83
2023-05-06T03:42:46.099Z,19.70
2023-05-06T03:43:48.903Z,18.33
2023-05-06T03:44:54.122Z,17.40
2023-05-06T03:45:58.338Z,17.48
2023-05-06T03:47:01.024Z,17.92
2023-05-06T03:48:04.685Z,18.88
2023-05-06T03:49:10.372Z,17.43
2023-05-06T03:50:13.638Z,18.67
2023-05-06T03:51:17.210Z,17.50
2023-05-06T03:52:19.882Z,18.50
2023-05-06T03:53:22.832Z,18.10
2023-05-06T03:54:26.280Z,17.73
2023-05-06T03:55:29.152Z,17.23
2023-05-06T03:56:32.278Z,17.58
2023-05-06T03:57:35.230Z,16.60
2023-05-06T03:58:37.967Z,16.73
2023-05-06T03:59:43.433Z,17.70
2023-05-06T04:00:46.090Z,16.50
2023-05-06T04:01:48.712Z,16.77
2023-05-06T04:02:52.055Z,19.13
2023-05-06T04:04:00.653Z,17.38
2023-05-06T04:05:04.028Z,15.88
2023-05-06T04:06:07.172Z,15.82
2023-05-06T04:07:09.832Z,16.63
2023-05-06T04:08:12.436Z,16.85
2023-05-06T04:09:16.136Z,17.42
2023-05-06T04:10:18.787Z,15.13
2023-05-06T04:11:25.090Z,15.65
2023-05-06T04:12:27.868Z,15.82
2023-05-06T04:13:30.519Z,17.38
2023-05-06T04:14:35.354Z,18.88
2023-05-06T04:15:38.714Z,16.92
2023-05-06T04:16:44.389Z,16.60
2023-05-06T04:17:47.093Z,16.83
2023-05-06T04:18:51.653Z,15.52
2023-05-06T04:19:54.655Z,16.77
2023-05-06T04:20:57.188Z,17.52
2023-05-06T04:22:00.897Z,15.05
2023-05-06T04:23:04.334Z,17.17
2023-05-06T04:24:07.733Z,18.80
2023-05-06T04:25:13.814Z,17.55
2023-05-06T04:26:16.687Z,16.40
2023-05-06T04:27:20.479Z,16.48
2023-05-06T04:28:23.055Z,17.05
2023-05-06T04:29:27.329Z,17.73
2023-05-06T04:30:34.865Z,18.02
2023-05-06T04:31:37.832Z,16.70
2023-05-06T04:32:43.494Z,16.42
2023-05-06T04:33:46.162Z,15.73
2023-05-06T04:34:53.844Z,15.68
2023-05-06T04:35:56.562Z,16.23
2023-05-06T04:37:00.777Z,15.80
2023-05-06T04:38:17.623Z,16.25
2023-05-06T04:39:20.403Z,15.57
2023-05-06T04:40:26.353Z,16.08
2023-05-06T04:41:31.098Z,15.95
2023-05-06T04:42:34.067Z,15.77
2023-05-06T04:43:45.128Z,14.52
2023-05-06T04:44:53.053Z,14.93
2023-05-06T04:46:00.407Z,15.65
2023-05-06T04:47:06.677Z,13.60
2023-05-06T04:48:09.898Z,14.70
2023-05-06T04:49:13.004Z,14.25
2023-05-06T04:50:16.041Z,15.15
2023-05-06T04:51:18.642Z,14.68
2023-05-06T04:52:21.360Z,14.95
2023-05-06T04:53:24.315Z,14.65
2023-05-06T04:54:26.917Z,15.50
2023-05-06T04:55:29.491Z,14.55
2023-05-06T04:56:32.045Z,14.40
2023-05-06T04:57:34.734Z,14.05
2023-05-06T04:58:38.365Z,15.27
2023-05-06T04:59:42.651Z,15.13
2023-05-06T05:00:45.395Z,14.65
2023-05-06T05:01:48.053Z,13.32
2023-05-06T05:02:51.483Z,13.48
2023-05-06T05:03:54.259Z,14.20
2023-05-06T05:04:57.309Z,14.27
2023-05-06T05:06:00.455Z,14.80
2023-05-06T05:07:03.463Z,15.05
2023-05-06T05:08:07.497Z,14.50
2023-05-06T05:09:12.537Z,14.05
2023-05-06T05:10:18.369Z,14.13
2023-05-06T05:11:21.458Z,15.05
2023-05-06T05:12:24.551Z,13.52
2023-05-06T05:13:28.543Z,15.88
2023-05-06T05:14:32.335Z,14.23
2023-05-06T05:15:35.348Z,14.00
2023-05-06T05:16:38.266Z,14.60
2023-05-06T05:17:41.514Z,13.68
2023-05-06T05:18:44.493Z,14.68
2023-05-06T05:19:53.308Z,14.02
2023-05-06T05:20:56.268Z,14.15
2023-05-06T05:21:59.087Z,15.15
2023-05-06T05:23:02.022Z,15.65
2023-05-06T05:24:05.084Z,13.98
2023-05-06T05:25:08.568Z,14.90
2023-05-06T05:26:11.592Z,13.23
2023-05-06T05:27:15.550Z,12.93
2023-05-06T05:28:18.451Z,12.15
2023-05-06T05:29:21.149Z,13.00
2023-05-06T05:30:23.951Z,15.13
2023-05-06T05:31:26.674Z,14.95
2023-05-06T05:32:29.340Z,14.05
2023-05-06T05:33:32.072Z,13.40
2023-05-06T05:34:35.044Z,14.23
2023-05-06T05:35:38.070Z,14.80
2023-05-06T05:36:41.523Z,14.20
2023-05-06T05:37:47.052Z,13.77
2023-05-06T05:38:50.575Z,14.05
2023-05-06T05:39:54.367Z,13.32
2023-05-06T05:40:57.225Z,15.10
2023-05-06T05:41:59.920Z,13.70
2023-05-06T05:43:03.032Z,13.48
2023-05-06T05:44:11.144Z,13.27
2023-05-06T05:45:15.121Z,16.40
2023-05-06T05:46:18.098Z,12.95
2023-05-06T05:47:23.236Z,13.32
2023-05-06T05:48:26.194Z,14.02
2023-05-06T05:49:29.817Z,15.57
2023-05-06T05:50:32.382Z,14.80
2023-05-06T05:51:35.748Z,15.40
2023-05-06T05:52:41.032Z,14.05
2023-05-06T05:53:44.383Z,14.00
2023-05-06T05:54:47.570Z,15.63
2023-05-06T05:55:50.093Z,14.38
2023-05-06T05:56:53.076Z,14.85
2023-05-06T05:57:55.879Z,13.43
2023-05-06T05:59:00.535Z,13.73
2023-05-06T06:00:05.847Z,13.90
2023-05-06T06:01:19.506Z,13.43
2023-05-06T06:02:22.506Z,15.15
2023-05-06T06:03:25.246Z,14.45
2023-05-06T06:04:27.979Z,15.13
2023-05-06T06:05:30.566Z,15.63
2023-05-06T06:06:33.433Z,15.18
2023-05-06T06:07:36.049Z,15.10
2023-05-06T06:08:38.746Z,15.05
2023-05-06T06:09:41.883Z,15.18
2023-05-06T06:10:44.736Z,12.73
2023-05-06T06:11:51.905Z,15.18
2023-05-06T06:12:55.043Z,14.23
2023-05-06T06:14:01.214Z,14.52
2023-05-06T06:15:04.457Z,12.20
2023-05-06T06:16:07.567Z,14.43
2023-05-06T06:17:10.223Z,13.60
2023-05-06T06:18:13.234Z,13.18
2023-05-06T06:19:15.979Z,14.10
2023-05-06T06:20:19.121Z,13.60
2023-05-06T06:21:21.697Z,12.50
2023-05-06T06:22:24.329Z,12.52
2023-05-06T06:23:27.401Z,12.57
2023-05-06T06:24:30.028Z,13.05
2023-05-06T06:25:32.656Z,15.63
2023-05-06T06:26:35.267Z,14.85
2023-05-06T06:27:38.073Z,13.63
2023-05-06T06:28:42.041Z,14.20
2023-05-06T06:29:44.637Z,14.38
2023-05-06T06:30:47.264Z,13.70
2023-05-06T06:31:49.896Z,14.93
2023-05-06T06:32:54.150Z,13.60
2023-05-06T06:33:56.792Z,13.55
2023-05-06T06:34:59.420Z,13.00
2023-05-06T06:36:02.289Z,13.77
2023-05-06T06:37:06.240Z,15.15
2023-05-06T06:38:10.391Z,14.00
2023-05-06T06:39:13.828Z,14.65
2023-05-06T06:40:17.487Z,15.30
2023-05-06T06:41:20.071Z,14.90
2023-05-06T06:42:22.662Z,14.57
2023-05-06T06:43:35.356Z,14.60
2023-05-06T06:44:46.305Z,14.82
2023-05-06T06:45:48.992Z,14.93
2023-05-06T06:46:51.588Z,15.13
2023-05-06T06:47:54.212Z,15.60
2023-05-06T06:48:56.790Z,15.40
2023-05-06T06:49:59.380Z,14.75
2023-05-06T06:51:01.919Z,13.65
2023-05-06T06:52:04.884Z,13.05
2023-05-06T06:53:07.512Z,13.50
2023-05-06T06:54:10.031Z,15.07
2023-05-06T06:55:12.786Z,15.65
2023-05-06T06:56:16.129Z,13.65
2023-05-06T06:57:18.977Z,16.10
2023-05-06T06:58:21.524Z,15.75
2023-05-06T06:59:24.254Z,15.43
2023-05-06T07:00:26.816Z,14.73
2023-05-06T07:01:29.478Z,15.05
2023-05-06T07:02:32.357Z,16.52
2023-05-06T07:03:35.027Z,15.60
2023-05-06T07:04:37.608Z,15.13
2023-05-06T07:05:40.245Z,14.48
2023-05-06T07:06:42.934Z,15.52
2023-05-06T07:07:45.512Z,16.88
2023-05-06T07:08:48.069Z,14.88
2023-05-06T07:09:50.689Z,14.48
2023-05-06T07:10:53.538Z,15.32
2023-05-06T07:11:56.620Z,14.77
2023-05-06T07:12:59.400Z,15.95
2023-05-06T07:14:02.079Z,15.63
2023-05-06T07:15:06.898Z,15.05
2023-05-06T07:16:09.523Z,16.83
2023-05-06T07:17:12.180Z,16.38
2023-05-06T07:18:15.112Z,15.10
2023-05-06T07:19:17.709Z,14.88
2023-05-06T07:20:20.444Z,16.60
2023-05-06T07:21:22.971Z,15.73
2023-05-06T07:22:25.581Z,14.40
2023-05-06T07:23:29.423Z,15.68
2023-05-06T07:24:33.119Z,14.40
2023-05-06T07:25:35.698Z,13.98
2023-05-06T07:26:38.588Z,14.75
2023-05-06T07:27:41.237Z,13.98
2023-05-06T07:28:43.754Z,13.68
2023-05-06T07:29:46.308Z,14.32
2023-05-06T07:30:51.385Z,12.88
2023-05-06T07:31:54.011Z,13.10
2023-05-06T07:32:56.677Z,13.38
2023-05-06T07:33:59.655Z,13.40
2023-05-06T07:35:02.278Z,14.10
2023-05-06T07:36:05.054Z,12.70
2023-05-06T07:37:08.330Z,12.57
2023-05-06T07:38:10.847Z,13.98
2023-05-06T07:39:14.261Z,14.15
2023-05-06T07:40:17.110Z,14.07
2023-05-06T07:41:19.680Z,14.15
2023-05-06T07:42:22.190Z,14.77
2023-05-06T07:43:24.833Z,15.15
2023-05-06T07:44:27.361Z,14.18
2023-05-06T07:45:30.124Z,13.10
2023-05-06T07:46:33.356Z,16.60
2023-05-06T07:47:36.704Z,15.52
2023-05-06T07:48:39.375Z,15.07
2023-05-06T07:49:41.949Z,15.07
2023-05-06T07:50:44.509Z,13.93
2023-05-06T07:51:47.244Z,13.60
2023-05-06T07:52:49.806Z,14.80
2023-05-06T07:53:52.392Z,16.35
2023-05-06T07:54:54.917Z,16.25
2023-05-06T07:56:02.625Z,14.05
2023-05-06T07:57:05.427Z,14.05
2023-05-06T07:58:08.046Z,15.88
2023-05-06T07:59:10.582Z,15.13
2023-05-06T08:00:13.605Z,15.30
2023-05-06T08:01:18.372Z,14.35
2023-05-06T08:02:21.155Z,14.50
2023-05-06T08:03:24.274Z,15.43
2023-05-06T08:04:26.995Z,14.70
2023-05-06T08:05:29.662Z,18.13
2023-05-06T08:06:32.365Z,16.27
2023-05-06T08:07:34.903Z,14.45
2023-05-06T08:08:37.425Z,12.90
2023-05-06T08:09:40.019Z,13.80
2023-05-06T08:10:44.544Z,14.48
2023-05-06T08:11:47.163Z,14.60
2023-05-06T08:12:50.031Z,14.18
2023-05-06T08:13:52.624Z,13.73
2023-05-06T08:14:55.263Z,13.45
2023-05-06T08:15:58.037Z,12.82
2023-05-06T08:17:00.679Z,13.48
2023-05-06T08:18:10.371Z,13.93
2023-05-06T08:19:17.265Z,14.10
2023-05-06T08:20:19.882Z,14.15
2023-05-06T08:21:22.433Z,13.90
2023-05-06T08:22:25.056Z,14.40
2023-05-06T08:23:27.730Z,14.30
2023-05-06T08:24:30.311Z,14.25
2023-05-06T08:25:32.846Z,14.38
2023-05-06T08:26:35.445Z,13.80
2023-05-06T08:27:38.055Z,15.10
2023-05-06T08:28:40.638Z,15.60
2023-05-06T08:29:43.299Z,24.48
2023-05-06T08:30:48.410Z,31.35
2023-05-06T08:31:51.133Z,25.08
2023-05-06T08:32:53.915Z,20.73
2023-05-06T08:33:56.478Z,18.08
2023-05-06T08:35:00.566Z,20.33
2023-05-06T08:36:03.326Z,26.98
2023-05-06T08:37:05.871Z,22.55
2023-05-06T08:38:08.435Z,19.45
2023-05-06T08:39:11.616Z,16.92
2023-05-06T08:40:22.537Z,16.88
2023-05-06T08:41:26.520Z,15.68
2023-05-06T08:42:30.945Z,15.45
2023-05-06T08:43:41.541Z,13.80
2023-05-06T08:44:44.696Z,13.40
2023-05-06T08:45:47.777Z,14.20
2023-05-06T08:46:50.591Z,14.80
2023-05-06T08:47:53.255Z,12.57
2023-05-06T08:48:55.855Z,14.68
2023-05-06T08:49:58.432Z,13.38
2023-05-06T08:51:03.811Z,13.55
2023-05-06T08:52:06.719Z,13.35
2023-05-06T08:53:16.862Z,15.15
2023-05-06T08:54:20.080Z,14.93
2023-05-06T08:55:26.635Z,14.70
2023-05-06T08:56:33.121Z,15.65
2023-05-06T08:57:36.391Z,13.70
2023-05-06T08:58:46.762Z,13.15
2023-05-06T08:59:49.333Z,15.90
2023-05-06T09:00:52.001Z,14.65
2023-05-06T09:01:54.665Z,12.90
2023-05-06T09:02:57.293Z,13.27
2023-05-06T09:04:00.528Z,13.52
2023-05-06T09:05:03.123Z,13.88
2023-05-06T09:06:05.784Z,12.43
2023-05-06T09:07:08.627Z,13.43
2023-05-06T09:08:11.775Z,12.85
2023-05-06T09:09:15.070Z,13.38
2023-05-06T09:10:19.119Z,13.63
2023-05-06T09:11:25.043Z,12.32
2023-05-06T09:12:27.609Z,12.38
2023-05-06T09:13:30.320Z,12.23
2023-05-06T09:14:32.882Z,13.68
2023-05-06T09:15:43.834Z,10.98
2023-05-06T09:16:50.032Z,11.32
2023-05-06T09:17:54.126Z,13.40
2023-05-06T09:18:57.491Z,13.00
2023-05-06T09:20:00.169Z,11.50
2023-05-06T09:21:04.735Z,13.32
2023-05-06T09:22:07.597Z,14.00
2023-05-06T09:23:12.995Z,14.48
2023-05-06T09:24:16.907Z,12.35
2023-05-06T09:25:19.521Z,12.50
2023-05-06T09:26:23.504Z,13.05
2023-05-06T09:27:36.729Z,13.43
2023-05-06T09:28:46.924Z,14.32
2023-05-06T09:30:07.350Z,13.23
2023-05-06T09:31:10.056Z,14.48
2023-05-06T09:32:14.906Z,14.80
2023-05-06T09:33:17.594Z,13.05
2023-05-06T09:34:21.212Z,13.65
2023-05-06T09:35:37.721Z,12.65
2023-05-06T09:36:40.785Z,13.35
2023-05-06T09:37:43.456Z,13.70
2023-05-06T09:38:45.970Z,14.13
2023-05-06T09:39:48.841Z,16.20
2023-05-06T09:40:51.718Z,14.48
2023-05-06T09:41:54.879Z,14.75
2023-05-06T09:42:58.426Z,14.82
2023-05-06T09:44:01.692Z,14.55
2023-05-06T09:45:04.773Z,15.20
2023-05-06T09:46:07.941Z,14.38
2023-05-06T09:47:11.162Z,15.85
2023-05-06T09:48:15.986Z,13.80
2023-05-06T09:49:18.608Z,14.43
2023-05-06T09:50:22.752Z,14.75
2023-05-06T09:51:27.988Z,15.55
2023-05-06T09:52:31.577Z,17.00
2023-05-06T09:53:39.244Z,18.60
2023-05-06T09:54:42.130Z,29.33
2023-05-06T09:55:46.104Z,30.15
2023-05-06T09:56:50.081Z,34.60
2023-05-06T09:57:53.209Z,32.10
2023-05-06T09:58:56.714Z,26.73
2023-05-06T10:00:02.520Z,24.60
2023-05-06T10:01:25.051Z,20.27
2023-05-06T10:02:36.380Z,14.43
2023-05-06T10:03:42.117Z,14.85
2023-05-06T10:04:46.197Z,13.93
2023-05-06T10:05:50.034Z,30.58
2023-05-06T10:06:56.760Z,34.95
2023-05-06T10:08:00.712Z,28.30
2023-05-06T10:09:03.529Z,27.63
2023-05-06T10:10:11.487Z,27.58
2023-05-06T10:11:15.255Z,19.17
2023-05-06T10:12:18.332Z,19.50
2023-05-06T10:13:22.788Z,18.92
2023-05-06T10:14:26.068Z,19.55
2023-05-06T10:15:29.042Z,17.27
2023-05-06T10:16:35.864Z,16.55
2023-05-06T10:17:40.819Z,13.93
2023-05-06T10:18:45.816Z,14.82
2023-05-06T10:19:50.819Z,15.52
2023-05-06T10:20:55.338Z,13.98
2023-05-06T10:22:08.301Z,13.30
2023-05-06T10:23:37.949Z,11.80
2023-05-06T10:24:56.201Z,13.80
2023-05-06T10:26:07.601Z,11.95
2023-05-06T10:27:12.387Z,10.95
2023-05-06T10:28:30.811Z,11.00
2023-05-06T10:29:37.536Z,12.10
2023-05-06T10:30:41.750Z,15.70
2023-05-06T10:31:49.662Z,14.77
2023-05-06T10:32:56.848Z,12.38
2023-05-06T10:34:05.057Z,11.90
2023-05-06T10:35:49.203Z,12.45
2023-05-06T10:36:57.629Z,11.32
2023-05-06T10:38:03.469Z,11.63
2023-05-06T10:39:10.057Z,10.63
2023-05-06T10:40:13.729Z,12.15
2023-05-06T10:41:17.391Z,10.07
2023-05-06T10:42:19.942Z,22.10
2023-05-06T10:43:34.275Z,14.02
2023-05-06T10:45:04.273Z,17.70
2023-05-06T10:46:16.410Z,14.32
2023-05-06T10:47:20.048Z,14.82
2023-05-06T10:48:22.610Z,14.57
2023-05-06T10:49:25.514Z,14.10
2023-05-06T10:50:30.807Z,14.25
2023-05-06T10:51:43.159Z,13.30
2023-05-06T10:52:47.064Z,13.90
2023-05-06T10:54:04.633Z,18.27
2023-05-06T10:55:27.465Z,18.90
2023-05-06T10:56:35.742Z,24.38
2023-05-06T10:57:41.599Z,19.83
2023-05-06T10:58:49.824Z,18.15
2023-05-06T10:59:54.904Z,15.93
2023-05-06T11:00:58.204Z,15.95
2023-05-06T11:02:03.466Z,16.63
2023-05-06T11:03:09.948Z,14.80
2023-05-06T11:04:19.283Z,13.40
2023-05-06T11:05:23.084Z,12.40
2023-05-06T11:06:38.543Z,11.80
2023-05-06T11:07:41.122Z,11.65
2023-05-06T11:08:45.369Z,10.90
2023-05-06T11:10:03.933Z,11.57
2023-05-06T11:12:01.810Z,10.80
2023-05-06T11:13:27.937Z,9.95
2023-05-06T11:14:35.888Z,10.25
2023-05-06T11:15:40.424Z,10.50
2023-05-06T11:16:50.929Z,10.52
2023-05-06T11:17:55.995Z,9.63
2023-05-06T11:18:59.094Z,9.93
2023-05-06T11:20:25.353Z,9.48
2023-05-06T11:21:33.833Z,9.70
2023-05-06T11:22:43.041Z,8.70
2023-05-06T11:23:49.524Z,8.50
2023-05-06T11:24:52.174Z,10.88
2023-05-06T11:25:56.515Z,9.55
2023-05-06T11:27:00.595Z,9.70
2023-05-06T11:28:11.810Z,9.30
2023-05-06T11:29:17.134Z,10.13
2023-05-06T11:30:19.715Z,9.75
2023-05-06T11:31:22.902Z,8.75
2023-05-06T11:32:29.337Z,9.93
2023-05-06T11:33:35.902Z,11.70
2023-05-06T11:34:39.900Z,8.90
2023-05-06T11:35:42.519Z,10.50
2023-05-06T11:36:51.505Z,9.65
2023-05-06T11:37:54.209Z,10.15
2023-05-06T11:38:58.359Z,9.93
2023-05-06T11:40:00.974Z,12.60
2023-05-06T11:41:03.690Z,12.38
2023-05-06T11:42:07.340Z,10.75
2023-05-06T11:43:16.955Z,11.20
2023-05-06T11:44:31.807Z,12.95
2023-05-06T11:45:48.065Z,12.77
2023-05-06T11:46:51.238Z,13.50
2023-05-06T11:47:55.278Z,12.80
2023-05-06T11:48:57.901Z,13.45
2023-05-06T11:50:06.466Z,12.30
2023-05-06T11:51:09.030Z,14.20
2023-05-06T11:52:13.184Z,14.35
2023-05-06T11:53:20.018Z,13.82
2023-05-06T11:54:23.660Z,14.30
2023-05-06T11:55:26.293Z,12.32
2023-05-06T11:56:28.928Z,12.70
2023-05-06T11:57:31.475Z,13.13
2023-05-06T11:58:34.368Z,11.00
2023-05-06T11:59:40.854Z,10.85
2023-05-06T12:00:53.585Z,10.70
2023-05-06T12:01:59.006Z,14.00
2023-05-06T12:03:03.193Z,11.63
2023-05-06T12:04:06.115Z,10.70
2023-05-06T12:05:09.947Z,11.52
2023-05-06T12:06:13.189Z,10.35
2023-05-06T12:07:16.861Z,10.35
2023-05-06T12:08:28.112Z,10.30
2023-05-06T12:09:31.359Z,9.88
2023-05-06T12:10:34.115Z,10.25
2023-05-06T12:11:38.731Z,10.02
2023-05-06T12:12:41.432Z,9.55
2023-05-06T12:13:44.280Z,9.50
2023-05-06T12:14:47.893Z,10.88
2023-05-06T12:15:51.209Z,9.15
2023-05-06T12:16:55.985Z,10.07
2023-05-06T12:17:58.865Z,9.60
2023-05-06T12:19:02.449Z,14.55
2023-05-06T12:20:06.001Z,10.02
2023-05-06T12:21:08.563Z,24.67
2023-05-06T12:22:26.969Z,21.45
2023-05-06T12:23:29.593Z,18.02
2023-05-06T12:24:32.198Z,16.95
2023-05-06T12:25:34.869Z,37.25
2023-05-06T12:26:48.837Z,26.88
2023-05-06T12:27:51.366Z,18.27
2023-05-06T12:29:10.664Z,17.48
2023-05-06T12:30:13.736Z,15.32
2023-05-06T12:31:21.348Z,18.98
2023-05-06T12:32:24.077Z,16.42
2023-05-06T12:33:26.640Z,20.70
2023-05-06T12:34:40.187Z,22.10
2023-05-06T12:35:42.834Z,19.90
2023-05-06T12:36:47.377Z,16.98
2023-05-06T12:37:50.020Z,14.27
2023-05-06T12:38:53.770Z,20.02
2023-05-06T12:39:59.134Z,17.50
2023-05-06T12:41:02.053Z,17.75
2023-05-06T12:42:05.177Z,16.05
2023-05-06T12:43:09.044Z,13.75
2023-05-06T12:44:34.059Z,11.90
2023-05-06T12:45:38.963Z,12.45
2023-05-06T12:46:51.635Z,11.38
2023-05-06T12:47:59.646Z,10.98
2023-05-06T12:49:03.580Z,13.20
2023-05-06T12:50:06.846Z,9.50
2023-05-06T12:51:22.402Z,9.90
2023-05-06T12:52:27.709Z,9.75
2023-05-06T12:53:35.574Z,8.52
2023-05-06T12:54:38.285Z,9.93
2023-05-06T12:55:45.328Z,9.57
2023-05-06T12:56:47.945Z,13.50
2023-05-06T12:57:52.299Z,12.45
2023-05-06T12:59:02.932Z,11.43
2023-05-06T13:00:07.452Z,10.30
2023-05-06T13:01:10.244Z,11.95
2023-05-06T13:02:13.504Z,10.43
2023-05-06T13:03:16.285Z,9.93
2023-05-06T13:04:18.988Z,10.45
2023-05-06T13:05:21.685Z,9.80
2023-05-06T13:06:24.496Z,10.63
2023-05-06T13:07:27.132Z,8.98
2023-05-06T13:08:29.640Z,9.15
2023-05-06T13:09:32.169Z,9.23
2023-05-06T13:10:34.783Z,9.55
2023-05-06T13:11:37.370Z,8.52
2023-05-06T13:12:40.045Z,9.27
2023-05-06T13:13:42.702Z,8.40
2023-05-06T13:14:45.429Z,10.63
2023-05-06T13:15:48.029Z,7.72
2023-05-06T13:16:50.729Z,7.57
2023-05-06T13:17:53.351Z,7.10
2023-05-06T13:18:55.948Z,8.32
2023-05-06T13:19:58.882Z,8.05
2023-05-06T13:21:01.864Z,7.88
2023-05-06T13:22:04.459Z,8.32
2023-05-06T13:23:07.041Z,7.30
2023-05-06T13:24:09.853Z,7.50
2023-05-06T13:25:13.548Z,7.72
2023-05-06T13:26:17.432Z,7.47
2023-05-06T13:27:20.026Z,7.40
2023-05-06T13:28:22.547Z,7.00
2023-05-06T13:29:25.253Z,7.18
2023-05-06T13:30:27.901Z,7.18
2023-05-06T13:31:31.434Z,6.85
2023-05-06T13:32:34.116Z,7.38
2023-05-06T13:33:36.849Z,6.82
2023-05-06T13:34:39.454Z,7.85
2023-05-06T13:35:42.018Z,7.47
2023-05-06T13:36:44.607Z,8.35
2023-05-06T13:37:47.317Z,6.88
2023-05-06T13:38:50.005Z,7.57
2023-05-06T13:39:52.550Z,7.35
2023-05-06T13:40:55.422Z,6.90
2023-05-06T13:41:57.935Z,7.55
2023-05-06T13:43:00.578Z,7.30
2023-05-06T13:44:03.653Z,7.15
2023-05-06T13:45:07.400Z,7.47
2023-05-06T13:46:10.238Z,7.80
2023-05-06T13:47:12.775Z,6.47
2023-05-06T13:48:15.800Z,5.63
2023-05-06T13:49:19.125Z,6.60
2023-05-06T13:50:21.648Z,6.93
2023-05-06T13:51:27.534Z,6.22
2023-05-06T13:52:30.137Z,6.07
2023-05-06T13:53:33.791Z,7.57
2023-05-06T13:54:36.394Z,7.07
2023-05-06T13:55:39.480Z,7.63
2023-05-06T13:56:42.069Z,7.15
2023-05-06T13:57:44.619Z,6.85
2023-05-06T13:58:47.244Z,7.18